Amboy, MN

7:43 PM CST on February 06, 2016 (GMT -0600)
Golly Farms | | Change Station
CLOSE
Current Station
Personal Weather Station
Location: Winnebago, MN
Elevation: 1079 ft
Nearby Weather Stations
Active Advisory: Blizzard Watch

Elev 1079 ft 43.80 °N, 94.20 °W | Updated 14 minutes ago

Mostly Cloudy
Mostly Cloudy
32.0 °F
Feels Like 22 °F
N
15.0
Wind Variable Wind from SSW
Gusts 20.0 mph

Today
High -- | Low -- °F
--% Chance of Precip.
Yesterday
High -- | Low -- °F
Precip. -- in
Pressure 29.87 in
Visibility 10.0 miles
Clouds Overcast 9500 ft
Windchill 22 °F
Dew Point 29 °F
Humidity 88%
Rainfall 0.00 in
Snow Depth Not available.
7:28 AM 5:33 PM
Waning Crescent, 3% visible
METAR KJYG 070134Z AUTO 20009KT 10SM OVC095 02/M01 A2987 RMK AO2
Pressure 29.87 in
Visibility 10.0 miles
Clouds Overcast 9500 ft
Windchill 22 °F
Dew Point 29 °F
Humidity 88%
Rainfall 0.00 in
Snow Depth Not available.
7:28 AM 5:33 PM
Waning Crescent, 3% visible
METAR KJYG 070134Z AUTO 20009KT 10SM OVC095 02/M01 A2987 RMK AO2

10-Day Weather Forecast

Almanac

Astronomy

Feb. 06, 2016 Rise Set
Actual Time
Civil Twilight
Nautical Twilight
Astronomical Twilight
Moon
Length of Visible Light
Length of Day
Tomorrow will be .
, % of the Moon is Illuminated

Today's Extremes

State Highs State Lows

Community

WunderPhotos

Upload Photos

1,891,123 photos uploaded!

WunderBlog® & News

Nearby

Air Quality

  Air Quality AQ Index Pollutant
Not available.

Snow Depth

Station Depth Elevation

Earthquake Activity

City Distance Mag. Time & Date
Minimum magnitude displayed is 2.5.

Coastal Water Temperatures

Place Temperature

Stations

Nearby Weather Stations

Station Location Temp. Windchill Dew Point Humidity Wind Precip. Elev Updated Type
                   

Watches & Warnings

Blizzard Watch
Issued: 3:09 PM CST Feb. 6, 2016 – National Weather Service

... Blizzard watch remains in effect from Sunday afternoon through
Monday morning...

A blizzard watch remains in effect from Sunday afternoon through
Monday morning.

* Winds gusting as high as 45 mph could cause whiteout
conditions in blowing snow. Significant drifting of the snow
is likely.

* Total snow accumulations of up to 2 inches are possible.

* Travel could be very difficult to impossible.

Precautionary/preparedness actions...

A blizzard watch means there is a potential for falling and/or
blowing snow with strong winds and extremely poor visibilities.
This can lead to whiteout conditions and make travel very
dangerous.